createdAt,value
2018-12-12T00:01:47.798Z,7.97
2018-12-12T00:04:15.746Z,8.70
2018-12-12T00:06:43.306Z,9.10
2018-12-12T00:09:10.860Z,9.10
2018-12-12T00:11:38.703Z,8.73
2018-12-12T00:14:06.440Z,10.50
2018-12-12T00:16:34.416Z,8.67
2018-12-12T00:19:02.161Z,8.53
2018-12-12T00:21:29.948Z,8.20
2018-12-12T00:23:57.574Z,8.63
2018-12-12T00:26:25.417Z,8.70
2018-12-12T00:28:53.243Z,9.27
2018-12-12T00:31:22.030Z,9.37
2018-12-12T00:33:49.594Z,9.50
2018-12-12T00:36:17.475Z,10.47
2018-12-12T00:38:45.271Z,9.63
2018-12-12T00:41:12.843Z,10.33
2018-12-12T00:43:40.449Z,9.50
2018-12-12T00:46:08.008Z,9.93
2018-12-12T00:48:35.565Z,9.47
2018-12-12T00:51:03.204Z,9.60
2018-12-12T00:53:31.075Z,8.40
2018-12-12T00:55:58.636Z,8.87
2018-12-12T00:58:26.395Z,8.37
2018-12-12T01:00:54.030Z,7.63
2018-12-12T01:03:22.272Z,8.27
2018-12-12T01:05:50.047Z,6.73
2018-12-12T01:08:17.859Z,7.37
2018-12-12T01:10:47.887Z,7.37
2018-12-12T01:13:15.659Z,7.70
2018-12-12T01:15:43.378Z,7.27
2018-12-12T01:18:12.047Z,9.03
2018-12-12T01:20:39.761Z,9.23
2018-12-12T01:23:07.310Z,9.17
2018-12-12T01:25:34.993Z,9.70
2018-12-12T01:28:02.896Z,9.87
2018-12-12T01:30:30.481Z,9.73
2018-12-12T01:32:58.214Z,10.50
2018-12-12T01:35:26.031Z,9.00
2018-12-12T01:37:54.013Z,9.07
2018-12-12T01:40:21.857Z,9.87
2018-12-12T01:42:49.463Z,9.90
2018-12-12T01:45:17.390Z,8.20
2018-12-12T01:47:45.316Z,8.77
2018-12-12T01:50:13.519Z,8.93
2018-12-12T01:52:41.245Z,9.43
2018-12-12T01:55:09.117Z,9.87
2018-12-12T01:57:36.895Z,9.67
2018-12-12T02:00:05.282Z,9.30
2018-12-12T02:02:33.185Z,8.87
2018-12-12T02:05:01.032Z,9.03
2018-12-12T02:07:28.840Z,9.30
2018-12-12T02:09:56.767Z,9.23
2018-12-12T02:12:24.861Z,9.30
2018-12-12T02:14:52.518Z,10.07
2018-12-12T02:17:20.496Z,9.60
2018-12-12T02:19:48.097Z,9.10
2018-12-12T02:22:15.980Z,9.87
2018-12-12T02:24:43.609Z,9.83
2018-12-12T02:27:11.275Z,9.73
2018-12-12T02:29:39.450Z,11.27
2018-12-12T02:32:07.481Z,11.17
2018-12-12T02:34:35.190Z,10.00
2018-12-12T02:37:02.891Z,10.17
2018-12-12T02:39:31.498Z,10.30
2018-12-12T02:41:59.949Z,11.10
2018-12-12T02:44:27.690Z,10.63
2018-12-12T02:46:55.849Z,9.80
2018-12-12T02:49:24.979Z,9.50
2018-12-12T02:51:52.744Z,9.87
2018-12-12T02:54:20.996Z,9.80
2018-12-12T02:56:49.025Z,10.67
2018-12-12T02:59:17.175Z,10.10
2018-12-12T03:01:45.716Z,10.00
2018-12-12T03:04:13.463Z,10.07
2018-12-12T03:06:41.469Z,9.47
2018-12-12T03:09:09.159Z,9.67
2018-12-12T03:11:37.282Z,9.77
2018-12-12T03:14:05.843Z,10.33
2018-12-12T03:16:34.158Z,9.57
2018-12-12T03:19:03.027Z,9.13
2018-12-12T03:21:31.747Z,10.27
2018-12-12T03:24:00.189Z,10.30
2018-12-12T03:26:28.494Z,11.20
2018-12-12T03:28:56.881Z,9.87
2018-12-12T03:31:24.789Z,9.67
2018-12-12T03:33:52.898Z,10.67
2018-12-12T03:36:21.548Z,10.20
2018-12-12T03:38:49.770Z,9.80
2018-12-12T03:41:17.975Z,10.13
2018-12-12T03:43:46.104Z,10.00
2018-12-12T03:46:13.887Z,10.47
2018-12-12T03:48:41.847Z,10.27
2018-12-12T03:51:09.680Z,10.67
2018-12-12T03:53:38.283Z,9.93
2018-12-12T03:56:06.420Z,10.17
2018-12-12T03:58:34.946Z,10.43
2018-12-12T04:01:03.178Z,9.20
2018-12-12T04:03:31.429Z,10.77
2018-12-12T04:05:59.772Z,9.87
2018-12-12T04:08:27.999Z,11.87
2018-12-12T04:10:56.272Z,10.27
2018-12-12T04:13:24.682Z,8.77
2018-12-12T04:15:52.731Z,9.83
2018-12-12T04:18:21.457Z,9.40
2018-12-12T04:20:49.522Z,10.33
2018-12-12T04:23:18.103Z,9.23
2018-12-12T04:25:46.412Z,10.40
2018-12-12T04:28:15.890Z,10.50
2018-12-12T04:30:43.655Z,10.00
2018-12-12T04:33:12.040Z,10.33
2018-12-12T04:35:40.204Z,9.97
2018-12-12T04:38:08.361Z,9.87
2018-12-12T04:40:37.064Z,10.37
2018-12-12T04:43:05.501Z,10.63
2018-12-12T04:45:33.708Z,12.23
2018-12-12T04:48:02.169Z,10.73
2018-12-12T04:50:30.472Z,11.17
2018-12-12T04:52:59.128Z,12.77
2018-12-12T04:55:27.381Z,11.50
2018-12-12T04:57:56.066Z,11.90
2018-12-12T05:00:24.153Z,11.43
2018-12-12T05:02:53.073Z,11.73
2018-12-12T05:05:20.995Z,10.27
2018-12-12T05:07:48.986Z,11.87
2018-12-12T05:10:17.195Z,10.07
2018-12-12T05:12:45.838Z,11.20
2018-12-12T05:15:15.347Z,11.80
2018-12-12T05:17:43.684Z,11.87
2018-12-12T05:20:11.730Z,11.73
2018-12-12T05:22:39.687Z,11.53
2018-12-12T05:25:07.892Z,10.40
2018-12-12T05:27:35.770Z,11.57
2018-12-12T05:30:04.158Z,10.30
2018-12-12T05:32:32.380Z,11.30
2018-12-12T05:35:00.037Z,9.70
2018-12-12T05:37:27.682Z,11.50
2018-12-12T05:39:55.255Z,10.43
2018-12-12T05:42:23.835Z,11.00
2018-12-12T05:44:51.405Z,10.73
2018-12-12T05:47:18.951Z,11.93
2018-12-12T05:49:46.476Z,10.87
2018-12-12T05:52:14.214Z,12.07
2018-12-12T05:54:41.735Z,12.43
2018-12-12T05:57:09.540Z,12.13
2018-12-12T05:59:37.273Z,12.43
2018-12-12T06:02:05.682Z,13.37
2018-12-12T06:04:33.773Z,12.23
2018-12-12T06:07:01.382Z,13.13
2018-12-12T06:09:29.546Z,14.00
2018-12-12T06:11:57.427Z,14.03
2018-12-12T06:14:25.336Z,14.27
2018-12-12T06:16:53.423Z,13.07
2018-12-12T06:19:21.409Z,14.73
2018-12-12T06:21:49.792Z,13.60
2018-12-12T06:24:17.799Z,15.23
2018-12-12T06:26:45.423Z,15.27
2018-12-12T06:29:13.474Z,16.30
2018-12-12T06:31:41.821Z,14.90
2018-12-12T06:34:11.118Z,14.57
2018-12-12T06:36:39.223Z,16.30
2018-12-12T06:39:07.855Z,17.40
2018-12-12T06:41:36.273Z,18.97
2018-12-12T06:44:04.298Z,17.73
2018-12-12T06:46:31.911Z,18.00
2018-12-12T06:49:00.276Z,19.77
2018-12-12T06:51:28.228Z,19.30
2018-12-12T06:53:55.890Z,20.57
2018-12-12T06:56:23.574Z,18.77
2018-12-12T06:58:51.212Z,19.97
2018-12-12T07:01:18.921Z,20.27
2018-12-12T07:03:47.068Z,19.30
2018-12-12T07:06:15.225Z,22.07
2018-12-12T07:08:43.336Z,19.73
2018-12-12T07:11:11.916Z,18.90
2018-12-12T07:13:40.142Z,19.03
2018-12-12T07:16:07.848Z,17.33
2018-12-12T07:18:36.281Z,18.20
2018-12-12T07:21:04.183Z,17.37
2018-12-12T07:23:32.364Z,17.90
2018-12-12T07:26:00.921Z,16.10
2018-12-12T07:28:30.724Z,14.63
2018-12-12T07:30:58.649Z,13.37
2018-12-12T07:33:26.311Z,15.47
2018-12-12T07:35:59.414Z,14.60
2018-12-12T07:38:24.591Z,13.50
2018-12-12T07:40:52.448Z,13.47
2018-12-12T07:43:20.348Z,12.77
2018-12-12T07:45:48.347Z,14.03
2018-12-12T07:48:16.618Z,12.50
2018-12-12T07:50:44.958Z,13.83
2018-12-12T07:53:13.169Z,13.50
2018-12-12T07:55:41.189Z,14.83
2018-12-12T07:58:09.738Z,15.87
2018-12-12T08:00:37.781Z,15.23
2018-12-12T08:03:06.663Z,15.17
2018-12-12T08:05:35.346Z,15.40
2018-12-12T08:08:03.093Z,15.67
2018-12-12T08:10:30.952Z,15.53
2018-12-12T08:12:59.484Z,15.70
2018-12-12T08:15:27.518Z,16.07
2018-12-12T08:17:55.673Z,17.83
2018-12-12T08:20:24.524Z,15.73
2018-12-12T08:22:54.209Z,16.83
2018-12-12T08:25:23.369Z,15.93
2018-12-12T08:27:52.204Z,16.30
2018-12-12T08:30:20.171Z,14.50
2018-12-12T08:32:48.007Z,17.20
2018-12-12T08:35:16.220Z,16.97
2018-12-12T08:37:44.460Z,17.27
2018-12-12T08:40:13.215Z,16.03
2018-12-12T08:42:41.663Z,15.17
2018-12-12T08:45:10.011Z,15.50
2018-12-12T08:47:37.651Z,16.13
2018-12-12T08:50:06.923Z,14.37
2018-12-12T08:52:34.485Z,14.63
2018-12-12T08:55:02.249Z,15.90
2018-12-12T08:57:30.260Z,15.40
2018-12-12T08:59:57.934Z,16.37
2018-12-12T09:02:25.922Z,15.70
2018-12-12T09:04:53.675Z,15.67
2018-12-12T09:07:21.442Z,15.50
2018-12-12T09:09:49.175Z,15.33
2018-12-12T09:12:16.820Z,14.93
2018-12-12T09:14:45.400Z,17.03
2018-12-12T09:17:13.224Z,15.27
2018-12-12T09:19:41.120Z,14.27
2018-12-12T09:22:08.854Z,15.20
2018-12-12T09:24:36.541Z,14.47
2018-12-12T09:27:04.271Z,14.60
2018-12-12T09:29:31.963Z,15.53
2018-12-12T09:31:59.571Z,15.33
2018-12-12T09:34:27.309Z,14.87
2018-12-12T09:36:55.045Z,12.83
2018-12-12T09:39:22.795Z,13.67
2018-12-12T09:41:50.361Z,11.53
2018-12-12T09:44:18.408Z,11.80
2018-12-12T09:46:45.972Z,12.57
2018-12-12T09:49:14.107Z,7.97
2018-12-12T09:51:42.310Z,6.73
2018-12-12T09:54:10.094Z,6.33
2018-12-12T09:56:37.846Z,7.30
2018-12-12T09:59:05.692Z,7.67
2018-12-12T10:01:33.504Z,7.43
2018-12-12T10:04:01.326Z,3.17
2018-12-12T10:06:29.036Z,5.87
2018-12-12T10:08:57.561Z,6.10
2018-12-12T10:11:25.551Z,5.70
2018-12-12T10:13:53.182Z,6.50
2018-12-12T10:16:21.155Z,8.07
2018-12-12T10:18:49.828Z,5.03
2018-12-12T10:21:17.583Z,7.57
2018-12-12T10:23:45.334Z,5.90
2018-12-12T10:26:13.171Z,5.10
2018-12-12T10:28:41.450Z,5.93
2018-12-12T10:31:09.314Z,5.50
2018-12-12T10:33:37.817Z,6.40
2018-12-12T10:36:05.855Z,7.87
2018-12-12T10:38:33.675Z,6.27
2018-12-12T10:41:01.592Z,6.07
2018-12-12T10:43:30.052Z,6.77
2018-12-12T10:45:58.383Z,5.53
2018-12-12T10:48:25.982Z,5.20
2018-12-12T10:50:53.922Z,3.93
2018-12-12T10:53:22.382Z,5.20
2018-12-12T10:55:50.629Z,4.10
2018-12-12T10:58:18.780Z,3.30
2018-12-12T11:00:52.386Z,3.27
2018-12-12T11:03:26.675Z,2.97
2018-12-12T11:05:54.618Z,4.40
2018-12-12T11:08:22.521Z,4.37
2018-12-12T11:10:50.134Z,4.13
2018-12-12T11:13:19.476Z,4.67
2018-12-12T11:15:47.815Z,4.77
2018-12-12T11:18:15.891Z,5.83
2018-12-12T11:20:44.062Z,4.87
2018-12-12T11:23:11.872Z,4.00
2018-12-12T11:25:39.538Z,4.10
2018-12-12T11:28:07.324Z,3.53
2018-12-12T11:30:35.733Z,3.07
2018-12-12T11:33:03.896Z,3.90
2018-12-12T11:35:31.957Z,4.23
2018-12-12T11:38:00.343Z,3.70
2018-12-12T11:40:28.617Z,3.67
2018-12-12T11:42:56.754Z,3.90
2018-12-12T11:45:24.342Z,3.90
2018-12-12T11:47:52.276Z,3.60
2018-12-12T11:50:20.155Z,3.20
2018-12-12T11:52:47.892Z,3.97
2018-12-12T11:55:15.875Z,3.00
2018-12-12T11:57:43.966Z,3.00
2018-12-12T12:00:12.693Z,2.57
2018-12-12T12:02:40.973Z,3.00
2018-12-12T12:05:08.810Z,3.47
2018-12-12T12:07:37.044Z,3.40
2018-12-12T12:10:07.242Z,3.53
2018-12-12T12:12:35.164Z,3.27
2018-12-12T12:15:03.201Z,3.97
2018-12-12T12:17:31.727Z,3.90
2018-12-12T12:19:59.887Z,4.07
2018-12-12T12:22:27.566Z,5.23
2018-12-12T12:24:55.408Z,5.53
2018-12-12T12:27:23.348Z,6.37
2018-12-12T12:29:51.173Z,6.23
2018-12-12T12:32:18.810Z,5.73
2018-12-12T12:34:46.347Z,5.23
2018-12-12T12:37:13.917Z,6.57
2018-12-12T12:39:41.470Z,7.53
2018-12-12T12:42:09.039Z,7.33
2018-12-12T12:44:36.763Z,8.33
2018-12-12T12:47:04.352Z,6.77
2018-12-12T12:49:31.939Z,7.00
2018-12-12T12:51:59.472Z,7.00
2018-12-12T12:54:27.018Z,7.50
2018-12-12T12:56:54.527Z,7.33
2018-12-12T12:59:22.196Z,5.37
2018-12-12T13:01:49.762Z,4.67
2018-12-12T13:04:17.953Z,5.50
2018-12-12T13:06:45.503Z,5.30
2018-12-12T13:09:13.071Z,5.87
2018-12-12T13:11:40.597Z,6.60
2018-12-12T13:14:08.141Z,6.50
2018-12-12T13:16:35.768Z,7.33
2018-12-12T13:19:03.448Z,7.73
2018-12-12T13:21:30.979Z,8.07
2018-12-12T13:23:58.476Z,9.00
2018-12-12T13:26:26.222Z,7.23
2018-12-12T13:28:53.740Z,8.80
2018-12-12T13:31:21.479Z,8.43
2018-12-12T13:33:49.037Z,7.37
2018-12-12T13:36:16.743Z,7.73
2018-12-12T13:38:44.362Z,6.67
2018-12-12T13:41:11.907Z,7.10
2018-12-12T13:43:39.450Z,5.87
2018-12-12T13:46:07.631Z,6.33
2018-12-12T13:48:35.190Z,6.23
2018-12-12T13:51:02.698Z,6.60
2018-12-12T13:53:30.295Z,6.90
2018-12-12T13:55:57.868Z,6.87
2018-12-12T13:58:25.449Z,6.00
2018-12-12T14:00:52.990Z,6.93
2018-12-12T14:03:20.535Z,6.80
2018-12-12T14:05:48.092Z,7.37
2018-12-12T14:08:15.812Z,6.57
2018-12-12T14:10:43.389Z,8.00
2018-12-12T14:13:10.931Z,7.90
2018-12-12T14:15:38.558Z,7.13
2018-12-12T14:18:06.133Z,6.60
2018-12-12T14:20:33.610Z,6.87
2018-12-12T14:23:01.196Z,7.03
2018-12-12T14:25:28.771Z,6.73
2018-12-12T14:27:56.267Z,7.37
2018-12-12T14:30:23.883Z,5.70
2018-12-12T14:32:51.431Z,5.80
2018-12-12T14:35:19.680Z,6.67
2018-12-12T14:37:47.256Z,6.53
2018-12-12T14:40:14.812Z,6.33
2018-12-12T14:42:49.807Z,6.37
2018-12-12T14:45:17.426Z,5.53
2018-12-12T14:47:44.970Z,6.07
2018-12-12T14:50:12.791Z,6.83
2018-12-12T14:52:40.355Z,6.47
2018-12-12T14:55:07.919Z,6.87
2018-12-12T14:57:35.444Z,7.23
2018-12-12T15:00:04.353Z,6.73
2018-12-12T15:02:31.920Z,7.70
2018-12-12T15:04:59.883Z,7.33
2018-12-12T15:07:27.451Z,8.63
2018-12-12T15:09:55.020Z,7.50
2018-12-12T15:12:22.726Z,7.87
2018-12-12T15:14:50.263Z,8.10
2018-12-12T15:17:17.930Z,8.83
2018-12-12T15:19:45.735Z,7.57
2018-12-12T15:22:13.385Z,8.20
2018-12-12T15:24:40.906Z,7.57
2018-12-12T15:27:08.731Z,8.00
2018-12-12T15:29:36.928Z,8.30
2018-12-12T15:32:04.904Z,8.60
2018-12-12T15:34:32.522Z,7.87
2018-12-12T15:37:00.089Z,8.93
2018-12-12T15:39:28.163Z,8.90
2018-12-12T15:41:55.766Z,8.87
2018-12-12T15:44:23.532Z,9.03
2018-12-12T15:46:51.291Z,9.13
2018-12-12T15:49:19.384Z,9.77
2018-12-12T15:51:47.084Z,9.00
2018-12-12T15:54:14.660Z,10.00
2018-12-12T15:56:42.444Z,9.93
2018-12-12T15:59:10.250Z,9.90
2018-12-12T16:01:37.901Z,10.27
2018-12-12T16:04:05.487Z,9.67
2018-12-12T16:06:33.097Z,10.73
2018-12-12T16:09:00.878Z,10.53
2018-12-12T16:11:28.437Z,10.53
2018-12-12T16:13:55.991Z,10.90
2018-12-12T16:16:23.549Z,11.20
2018-12-12T16:18:51.149Z,10.80
2018-12-12T16:21:18.753Z,12.50
2018-12-12T16:23:46.279Z,11.50
2018-12-12T16:26:13.874Z,11.00
2018-12-12T16:28:41.447Z,11.20
2018-12-12T16:31:09.196Z,10.33
2018-12-12T16:33:36.839Z,10.57
2018-12-12T16:36:04.445Z,10.77
2018-12-12T16:38:32.156Z,9.97
2018-12-12T16:40:59.785Z,11.27
2018-12-12T16:43:27.372Z,10.47
2018-12-12T16:45:55.358Z,11.07
2018-12-12T16:48:22.936Z,10.43
2018-12-12T16:50:50.522Z,10.03
2018-12-12T16:53:18.102Z,10.27
2018-12-12T16:55:45.665Z,9.97
2018-12-12T16:58:13.697Z,9.87
2018-12-12T17:00:41.364Z,11.07
2018-12-12T17:03:08.915Z,10.37
2018-12-12T17:05:36.512Z,9.47
2018-12-12T17:08:04.335Z,10.63
2018-12-12T17:10:31.943Z,10.93
2018-12-12T17:12:59.560Z,10.47
2018-12-12T17:15:27.529Z,11.77
2018-12-12T17:17:55.326Z,11.57
2018-12-12T17:20:23.423Z,10.43
2018-12-12T17:22:51.000Z,11.20
2018-12-12T17:25:18.634Z,11.60
2018-12-12T17:27:46.283Z,12.13
2018-12-12T17:30:13.936Z,10.77
2018-12-12T17:32:41.501Z,10.50
2018-12-12T17:35:09.209Z,10.90
2018-12-12T17:37:37.042Z,9.97
2018-12-12T17:40:04.980Z,10.97
2018-12-12T17:42:32.867Z,11.60
2018-12-12T17:45:00.563Z,11.57
2018-12-12T17:47:28.336Z,11.37
2018-12-12T17:49:55.961Z,10.67
2018-12-12T17:52:23.568Z,11.10
2018-12-12T17:54:51.286Z,10.97
2018-12-12T17:57:18.873Z,9.07
2018-12-12T17:59:47.194Z,9.53
2018-12-12T18:02:15.336Z,9.90
2018-12-12T18:04:43.035Z,9.97
2018-12-12T18:07:10.651Z,9.30
2018-12-12T18:09:38.259Z,9.63
2018-12-12T18:12:05.856Z,9.57
2018-12-12T18:14:34.307Z,10.33
2018-12-12T18:17:02.344Z,8.90
2018-12-12T18:19:30.385Z,9.60
2018-12-12T18:21:58.213Z,10.27
2018-12-12T18:24:26.021Z,9.10
2018-12-12T18:26:54.468Z,8.10
2018-12-12T18:29:22.812Z,8.17
2018-12-12T18:31:50.655Z,8.73
2018-12-12T18:34:18.784Z,9.50
2018-12-12T18:36:46.423Z,9.33
2018-12-12T18:39:14.504Z,8.90
2018-12-12T18:41:42.148Z,8.40
2018-12-12T18:44:09.765Z,9.23
2018-12-12T18:46:37.437Z,8.00
2018-12-12T18:49:05.123Z,8.47
2018-12-12T18:51:32.834Z,8.47
2018-12-12T18:54:00.420Z,9.70
2018-12-12T18:56:28.676Z,7.83
2018-12-12T18:58:56.318Z,8.87
2018-12-12T19:01:23.875Z,8.27
2018-12-12T19:03:51.449Z,9.47
2018-12-12T19:06:19.813Z,9.03
2018-12-12T19:08:47.445Z,8.60
2018-12-12T19:11:16.061Z,9.20
2018-12-12T19:13:43.663Z,8.93
2018-12-12T19:16:11.584Z,9.77
2018-12-12T19:18:39.297Z,9.73
2018-12-12T19:21:06.979Z,10.70
2018-12-12T19:23:35.740Z,10.93
2018-12-12T19:26:03.442Z,11.10
2018-12-12T19:28:31.562Z,10.33
2018-12-12T19:30:59.107Z,11.37
2018-12-12T19:33:26.782Z,13.07
2018-12-12T19:35:54.560Z,11.73
2018-12-12T19:38:22.194Z,12.10
2018-12-12T19:40:49.941Z,12.43
2018-12-12T19:43:17.514Z,10.77
2018-12-12T19:45:45.176Z,10.37
2018-12-12T19:48:14.122Z,12.00
2018-12-12T19:50:41.764Z,11.07
2018-12-12T19:53:09.483Z,10.03
2018-12-12T19:55:37.136Z,9.23
2018-12-12T19:58:06.123Z,8.50
2018-12-12T20:00:34.162Z,8.93
2018-12-12T20:03:01.718Z,10.73
2018-12-12T20:05:29.357Z,10.57
2018-12-12T20:07:57.061Z,10.33
2018-12-12T20:10:25.211Z,9.93
2018-12-12T20:12:52.753Z,11.60
2018-12-12T20:15:26.059Z,10.37
2018-12-12T20:17:53.702Z,9.93
2018-12-12T20:20:21.307Z,9.63
2018-12-12T20:22:50.100Z,9.30
2018-12-12T20:25:17.681Z,8.83
2018-12-12T20:27:46.024Z,8.97
2018-12-12T20:33:00.218Z,9.00
2018-12-12T20:35:29.598Z,8.07
2018-12-12T20:37:58.186Z,8.50
2018-12-12T20:40:26.681Z,8.83
2018-12-12T20:42:55.151Z,8.13
2018-12-12T20:45:23.601Z,8.53
2018-12-12T20:47:52.161Z,9.03
2018-12-12T20:50:20.739Z,7.83
2018-12-12T20:52:49.477Z,7.60
2018-12-12T20:55:18.059Z,7.87
2018-12-12T20:57:46.661Z,8.07
2018-12-12T21:00:15.402Z,8.53
2018-12-12T21:02:44.235Z,7.97
2018-12-12T21:05:12.855Z,9.30
2018-12-12T21:07:42.473Z,7.77
2018-12-12T21:10:11.194Z,8.60
2018-12-12T21:12:39.784Z,8.17
2018-12-12T21:15:09.839Z,7.70
2018-12-12T21:17:39.007Z,8.00
2018-12-12T21:20:10.436Z,7.63
2018-12-12T21:22:39.111Z,9.07
2018-12-12T21:25:08.145Z,9.03
2018-12-12T21:27:36.847Z,9.40
2018-12-12T21:30:05.851Z,9.10
2018-12-12T21:32:34.804Z,9.43
2018-12-12T21:35:03.512Z,9.00
2018-12-12T21:37:32.071Z,9.03
2018-12-12T21:40:00.588Z,9.77
2018-12-12T21:42:29.161Z,9.67
2018-12-12T21:44:57.648Z,9.13
2018-12-12T21:47:26.189Z,8.97
2018-12-12T21:49:54.753Z,9.13
2018-12-12T21:52:23.297Z,9.77
2018-12-12T21:54:51.824Z,8.37
2018-12-12T21:57:20.502Z,9.30
2018-12-12T21:59:48.947Z,10.37
2018-12-12T22:02:17.483Z,8.97
2018-12-12T22:04:45.989Z,9.40
2018-12-12T22:07:14.471Z,9.33
2018-12-12T22:09:43.002Z,9.50
2018-12-12T22:12:11.572Z,10.10
2018-12-12T22:14:40.100Z,9.70
2018-12-12T22:17:08.583Z,10.07
2018-12-12T22:19:37.044Z,9.90
2018-12-12T22:22:05.626Z,9.93
2018-12-12T22:24:34.140Z,9.67
2018-12-12T22:27:02.673Z,10.50
2018-12-12T22:29:31.138Z,9.90
2018-12-12T22:31:59.607Z,10.90
2018-12-12T22:34:28.164Z,10.60
2018-12-12T22:36:56.709Z,12.10
2018-12-12T22:39:25.279Z,12.37
2018-12-12T22:41:53.804Z,11.23
2018-12-12T22:44:22.388Z,11.83
2018-12-12T22:46:50.923Z,11.17
2018-12-12T22:49:19.373Z,12.27
2018-12-12T22:51:47.874Z,11.63
2018-12-12T22:54:16.332Z,13.37
2018-12-12T22:56:44.833Z,12.07
2018-12-12T22:59:13.407Z,13.37
2018-12-12T23:01:42.243Z,12.07
2018-12-12T23:04:10.754Z,13.43
2018-12-12T23:06:39.245Z,12.23
2018-12-12T23:09:08.989Z,12.97
2018-12-12T23:11:38.066Z,12.73
2018-12-12T23:14:07.328Z,12.40
2018-12-12T23:16:36.131Z,12.93
2018-12-12T23:19:04.769Z,13.27
2018-12-12T23:21:33.257Z,12.23
2018-12-12T23:24:01.726Z,13.10
2018-12-12T23:26:30.182Z,13.20
2018-12-12T23:28:58.664Z,12.40
2018-12-12T23:31:27.325Z,13.77
2018-12-12T23:33:55.800Z,12.20
2018-12-12T23:36:26.987Z,12.30
2018-12-12T23:38:54.750Z,13.27
2018-12-12T23:41:23.237Z,12.03
2018-12-12T23:43:51.862Z,12.10
2018-12-12T23:46:20.365Z,12.23
2018-12-12T23:48:48.813Z,11.33
2018-12-12T23:51:17.292Z,11.30
2018-12-12T23:53:45.798Z,11.93
2018-12-12T23:56:14.253Z,12.93
2018-12-12T23:58:42.740Z,11.53
